createdAt,value
2022-08-19T00:05:01.236Z,10.67
2022-08-19T00:10:04.111Z,11.00
2022-08-19T00:15:13.677Z,11.00
2022-08-19T00:20:19.644Z,13.33
2022-08-19T00:25:29.960Z,12.67
2022-08-19T00:30:32.704Z,11.33
2022-08-19T00:35:34.985Z,11.00
2022-08-19T00:40:37.226Z,10.67
2022-08-19T00:45:42.552Z,9.67
2022-08-19T00:50:51.953Z,10.00
2022-08-19T00:55:57.595Z,11.00
2022-08-19T01:01:00.730Z,8.67
2022-08-19T01:06:03.498Z,11.00
2022-08-19T01:11:06.093Z,11.33
2022-08-19T01:16:14.421Z,9.00
2022-08-19T01:21:23.772Z,12.67
2022-08-19T01:26:27.885Z,15.00
2022-08-19T01:31:33.627Z,12.00
2022-08-19T01:36:43.134Z,12.00
2022-08-19T01:41:45.358Z,12.00
2022-08-19T01:46:49.332Z,11.67
2022-08-19T01:51:52.021Z,13.67
2022-08-19T01:56:59.234Z,12.00
2022-08-19T02:02:02.187Z,15.00
2022-08-19T02:07:04.429Z,12.67
2022-08-19T02:12:08.876Z,12.33
2022-08-19T02:17:11.035Z,10.33
2022-08-19T02:22:13.195Z,12.67
2022-08-19T02:27:16.370Z,14.00
2022-08-19T02:32:22.528Z,11.67
2022-08-19T02:37:43.182Z,9.33
2022-08-19T02:42:46.763Z,9.00
2022-08-19T02:47:48.924Z,10.00
2022-08-19T02:52:51.140Z,8.00
2022-08-19T02:57:53.420Z,8.33
2022-08-19T03:02:55.725Z,8.00
2022-08-19T03:07:57.873Z,12.00
2022-08-19T03:13:00.057Z,12.33
2022-08-19T03:18:06.752Z,11.67
2022-08-19T03:23:11.843Z,10.67
2022-08-19T03:28:15.729Z,6.67
2022-08-19T03:33:18.171Z,11.00
2022-08-19T03:38:31.459Z,11.00
2022-08-19T03:43:35.884Z,9.00
2022-08-19T03:48:39.615Z,8.33
2022-08-19T03:53:41.824Z,10.00
2022-08-19T03:58:45.077Z,7.00
2022-08-19T04:03:50.146Z,7.00
2022-08-19T04:08:54.969Z,10.00
2022-08-19T04:13:58.209Z,9.33
2022-08-19T04:19:05.805Z,9.00
2022-08-19T04:24:08.235Z,8.33
2022-08-19T04:29:14.622Z,11.67
2022-08-19T04:34:23.266Z,8.67
2022-08-19T04:39:49.618Z,7.33
2022-08-19T04:44:51.860Z,6.00
2022-08-19T04:49:54.053Z,5.67
2022-08-19T04:54:56.452Z,7.00
2022-08-19T04:59:58.716Z,8.00
2022-08-19T05:05:01.999Z,8.00
2022-08-19T05:10:06.336Z,6.00
2022-08-19T05:15:09.737Z,4.00
2022-08-19T05:20:30.294Z,3.00
2022-08-19T05:25:32.427Z,4.00
2022-08-19T05:30:46.761Z,1.67
2022-08-19T05:35:50.539Z,4.00
2022-08-19T05:40:52.659Z,1.67
2022-08-19T05:45:54.801Z,2.00
2022-08-19T05:50:58.005Z,3.00
2022-08-19T05:56:07.922Z,2.00
2022-08-19T06:01:17.304Z,2.67
2022-08-19T06:06:20.522Z,0.00
2022-08-19T06:11:37.477Z,1.33
2022-08-19T06:16:42.427Z,2.00
2022-08-19T06:21:48.376Z,1.67
2022-08-19T06:26:55.772Z,1.33
2022-08-19T06:32:02.227Z,1.00
2022-08-19T06:37:04.578Z,2.00
2022-08-19T06:42:10.909Z,1.00
2022-08-19T06:47:23.358Z,2.00
2022-08-19T06:52:34.036Z,2.33
2022-08-19T06:57:36.500Z,3.00
2022-08-19T07:02:39.081Z,3.00
2022-08-19T07:07:44.809Z,2.00
2022-08-19T07:12:51.366Z,2.33
2022-08-19T07:17:53.602Z,1.00
2022-08-19T07:22:56.000Z,4.00
2022-08-19T07:27:58.542Z,4.00
2022-08-19T07:33:04.457Z,3.00
2022-08-19T07:38:07.676Z,3.00
2022-08-19T07:43:13.919Z,2.00
2022-08-19T07:48:16.372Z,5.00
2022-08-19T07:53:18.523Z,4.00
2022-08-19T07:58:23.156Z,4.00
2022-08-19T08:03:46.478Z,5.00
2022-08-19T08:09:07.229Z,4.00
2022-08-19T08:14:29.220Z,5.00
2022-08-19T08:19:32.209Z,3.00
2022-08-19T08:24:37.003Z,3.00
2022-08-19T08:29:41.329Z,4.00
2022-08-19T08:34:44.424Z,5.00
2022-08-19T08:39:49.538Z,5.67
2022-08-19T08:45:17.787Z,4.67
2022-08-19T08:50:26.646Z,5.00
2022-08-19T08:55:36.691Z,5.00
2022-08-19T09:00:43.901Z,20.33
2022-08-19T09:06:06.280Z,5.67
2022-08-19T09:11:42.555Z,8.00
2022-08-19T09:16:46.636Z,9.00
2022-08-19T09:21:49.441Z,10.67
2022-08-19T09:26:52.792Z,7.00
2022-08-19T09:31:55.252Z,11.33
2022-08-19T09:36:59.315Z,9.00
2022-08-19T09:42:01.658Z,10.00
2022-08-19T09:47:05.749Z,8.67
2022-08-19T09:52:10.496Z,10.00
2022-08-19T09:57:18.183Z,10.00
2022-08-19T10:02:22.206Z,7.33
2022-08-19T10:07:28.840Z,5.00
2022-08-19T10:12:38.834Z,9.00
2022-08-19T10:17:40.982Z,8.00
2022-08-19T10:22:51.891Z,8.67
2022-08-19T10:27:55.878Z,7.33
2022-08-19T10:32:58.369Z,8.00
2022-08-19T10:38:02.457Z,9.33
2022-08-19T10:43:05.865Z,9.33
2022-08-19T10:48:07.990Z,9.33
2022-08-19T10:53:17.734Z,8.00
2022-08-19T10:58:26.881Z,6.33
2022-08-19T11:03:30.644Z,8.00
2022-08-19T11:08:35.432Z,9.33
2022-08-19T11:13:39.759Z,11.00
2022-08-19T11:18:45.013Z,10.67
2022-08-19T11:23:50.405Z,10.67
2022-08-19T11:28:55.276Z,11.00
2022-08-19T11:34:00.791Z,9.33
2022-08-19T11:39:04.580Z,10.00
2022-08-19T11:44:08.793Z,12.33
2022-08-19T11:49:14.006Z,13.67
2022-08-19T11:54:18.409Z,11.00
2022-08-19T11:59:20.645Z,15.00
2022-08-19T12:04:24.057Z,14.33
2022-08-19T12:09:26.197Z,13.33
2022-08-19T12:14:33.429Z,13.00
2022-08-19T12:19:38.573Z,10.67
2022-08-19T12:24:40.825Z,13.00
2022-08-19T12:29:43.258Z,9.00
2022-08-19T12:34:45.672Z,11.33
2022-08-19T12:39:48.334Z,6.67
2022-08-19T12:44:52.485Z,10.00
2022-08-19T12:49:56.102Z,12.00
2022-08-19T12:54:58.534Z,9.67
2022-08-19T13:00:12.772Z,12.33
2022-08-19T13:05:18.144Z,12.67
2022-08-19T13:10:22.747Z,10.00
2022-08-19T13:15:25.044Z,10.67
2022-08-19T13:20:27.736Z,11.67
2022-08-19T13:25:29.932Z,12.33
2022-08-19T13:30:50.506Z,10.00
2022-08-19T13:35:59.689Z,12.00
2022-08-19T13:41:10.967Z,11.00
2022-08-19T13:46:15.076Z,10.33
2022-08-19T13:51:18.957Z,11.33
2022-08-19T13:56:25.857Z,12.00
2022-08-19T14:01:28.783Z,7.67
2022-08-19T14:06:30.932Z,11.33
2022-08-19T14:11:33.172Z,11.33
2022-08-19T14:16:35.430Z,11.67
2022-08-19T14:21:41.400Z,12.33
2022-08-19T14:26:43.788Z,8.00
2022-08-19T14:31:46.045Z,10.00
2022-08-19T14:36:48.202Z,11.00
2022-08-19T14:41:52.732Z,10.33
2022-08-19T14:46:54.842Z,9.00
2022-08-19T14:51:57.648Z,15.00
2022-08-19T14:56:59.843Z,13.33
2022-08-19T15:02:34.230Z,9.00
2022-08-19T15:07:24.062Z,10.00
2022-08-19T15:12:31.544Z,12.33
2022-08-19T15:17:45.280Z,9.33
2022-08-19T15:22:48.690Z,12.00
2022-08-19T15:27:51.303Z,10.00
2022-08-19T15:32:54.335Z,9.00
2022-08-19T15:37:57.241Z,12.00
2022-08-19T15:42:59.581Z,10.33
2022-08-19T15:48:04.797Z,5.00
2022-08-19T15:53:09.446Z,7.00
2022-08-19T15:58:32.959Z,10.00
2022-08-19T16:03:53.991Z,9.00
2022-08-19T16:09:04.978Z,6.67
2022-08-19T16:14:09.614Z,9.00
2022-08-19T16:19:12.756Z,8.33
2022-08-19T16:24:17.877Z,11.00
2022-08-19T16:29:33.609Z,9.00
2022-08-19T16:34:38.753Z,11.33
2022-08-19T16:39:43.661Z,7.33
2022-08-19T16:44:46.595Z,9.00
2022-08-19T16:49:53.884Z,13.33
2022-08-19T16:54:57.542Z,12.00
2022-08-19T16:59:59.793Z,10.00
2022-08-19T17:05:02.106Z,13.67
2022-08-19T17:10:05.553Z,13.67
2022-08-19T17:15:10.734Z,11.67
2022-08-19T17:20:13.053Z,11.67
2022-08-19T17:25:20.339Z,13.67
2022-08-19T17:30:23.087Z,13.67
2022-08-19T17:35:25.252Z,14.00
2022-08-19T17:40:29.214Z,13.00
2022-08-19T17:45:32.425Z,14.67
2022-08-19T17:50:35.474Z,13.33
2022-08-19T17:55:38.171Z,18.00
2022-08-19T18:00:53.735Z,16.67
2022-08-19T18:05:59.156Z,17.67
2022-08-19T18:11:01.509Z,16.33
2022-08-19T18:16:12.749Z,13.67
2022-08-19T18:21:16.555Z,16.33
2022-08-19T18:26:18.909Z,17.00
2022-08-19T18:31:23.466Z,15.00
2022-08-19T18:36:51.980Z,13.33
2022-08-19T18:42:06.075Z,13.33
2022-08-19T18:47:27.684Z,13.67
2022-08-19T18:52:30.317Z,14.00
2022-08-19T18:57:32.643Z,13.33
2022-08-19T19:02:41.260Z,10.33
2022-08-19T19:07:44.078Z,13.00
2022-08-19T19:12:46.656Z,11.00
2022-08-19T19:17:49.187Z,11.33
2022-08-19T19:22:51.526Z,11.00
2022-08-19T19:27:58.106Z,12.00
2022-08-19T19:33:03.344Z,12.00
2022-08-19T19:38:05.496Z,11.00
2022-08-19T19:43:08.391Z,9.33
2022-08-19T19:48:13.133Z,12.00
2022-08-19T19:53:15.253Z,13.00
2022-08-19T19:58:18.666Z,10.67
2022-08-19T20:03:26.266Z,11.00
2022-08-19T20:08:47.324Z,13.00
2022-08-19T20:13:49.589Z,11.00
2022-08-19T20:18:52.705Z,10.33
2022-08-19T20:24:09.068Z,9.00
2022-08-19T20:29:37.862Z,11.67
2022-08-19T20:34:34.336Z,9.00
2022-08-19T20:39:37.132Z,7.67
2022-08-19T20:44:42.277Z,10.00
2022-08-19T20:49:44.464Z,10.67
2022-08-19T20:54:46.694Z,11.33
2022-08-19T20:59:49.356Z,10.33
2022-08-19T21:04:51.593Z,10.33
2022-08-19T21:09:53.742Z,11.00
2022-08-19T21:14:55.973Z,11.33
2022-08-19T21:19:58.150Z,10.67
2022-08-19T21:25:00.295Z,9.00
2022-08-19T21:30:03.754Z,8.33
2022-08-19T21:35:06.113Z,10.00
2022-08-19T21:40:08.993Z,9.67
2022-08-19T21:45:12.622Z,8.67
2022-08-19T21:50:14.830Z,8.33
2022-08-19T21:55:17.305Z,10.00
2022-08-19T22:00:22.979Z,11.00
2022-08-19T22:05:25.926Z,8.33
2022-08-19T22:10:32.483Z,11.00
2022-08-19T22:15:34.809Z,10.67
2022-08-19T22:20:37.222Z,8.00
2022-08-19T22:25:43.839Z,9.00
2022-08-19T22:30:47.281Z,9.67
2022-08-19T22:35:53.837Z,10.00
2022-08-19T22:40:56.677Z,7.50
2022-08-19T22:46:00.351Z,8.33
2022-08-19T22:51:21.039Z,9.00
2022-08-19T22:56:23.454Z,12.33
2022-08-19T23:01:30.211Z,11.00
2022-08-19T23:06:34.657Z,11.67
2022-08-19T23:11:41.934Z,10.00
2022-08-19T23:16:50.815Z,11.67
2022-08-19T23:21:53.590Z,11.33
2022-08-19T23:27:14.137Z,8.67
2022-08-19T23:32:18.540Z,10.67
2022-08-19T23:37:20.716Z,12.00
2022-08-19T23:42:26.076Z,11.67
2022-08-19T23:47:28.234Z,11.00
2022-08-19T23:52:34.503Z,12.67
2022-08-19T23:57:36.670Z,11.67
